Time;durP1;ratioP1;P1;durP2;ratioP2;P2;SDS_P1;SDS_P2;PMS_P1;PMS_P2;Temp;Humidity;BMP_temperature;BMP_pressure;BME280_temperature;BME280_humidity;BME280_pressure;Samples;Min_cycle;Max_cycle;Signal;HPM_P1;HPM_P2
2022/07/04 00:04:43;;;;;;;0.00;0.00;;;18.00;58.60;20.20;94162.00;;;;10561307;27;45679;-61
2022/07/04 00:10:07;;;;;;;0.20;0.20;;;18.00;58.60;20.20;94150.00;;;;10560470;27;45766;-62
2022/07/04 00:15:28;;;;;;;0.00;0.00;;;18.00;58.60;20.20;94176.00;;;;10560923;27;45150;-63
2022/07/04 00:20:48;;;;;;;0.30;0.10;;;18.00;58.60;20.20;94150.00;;;;10559066;27;45202;-62
2022/07/04 00:26:10;;;;;;;0.10;0.10;;;18.00;58.60;20.20;94139.00;;;;10560395;27;45160;-63
2022/07/04 00:31:31;;;;;;;0.10;0.10;;;18.00;58.60;20.20;94156.00;;;;10560683;27;46004;-62
2022/07/04 00:36:52;;;;;;;0.20;0.10;;;18.00;58.60;20.20;94158.00;;;;10556429;27;45213;-62
2022/07/04 00:42:14;;;;;;;0.10;0.10;;;18.00;58.60;20.20;94149.00;;;;10555986;27;45171;-62
2022/07/04 00:47:34;;;;;;;0.08;0.08;;;18.00;58.60;20.20;94184.00;;;;10564825;27;45111;-61
2022/07/04 00:52:55;;;;;;;0.15;0.10;;;18.10;58.60;20.20;94182.00;;;;10567519;27;45383;-62
2022/07/04 00:58:21;;;;;;;0.00;0.00;;;18.00;58.60;20.20;94195.00;;;;10564116;27;45892;-63
2022/07/04 01:03:42;;;;;;;0.20;0.10;;;18.00;58.60;20.20;94156.00;;;;10561565;27;45199;-62
2022/07/04 01:09:03;;;;;;;0.00;0.00;;;18.00;58.60;20.20;94143.00;;;;10566003;27;45842;-62
2022/07/04 01:14:25;;;;;;;0.10;0.10;;;18.00;58.60;20.20;94145.00;;;;10566293;27;45195;-62
2022/07/04 01:19:46;;;;;;;0.20;0.00;;;18.00;58.60;20.20;94160.00;;;;10566368;27;45200;-63
2022/07/04 01:25:09;;;;;;;0.20;0.20;;;18.00;58.60;20.20;94198.00;;;;10566110;27;45220;-62
2022/07/04 01:30:30;;;;;;;0.10;0.10;;;18.00;58.60;20.20;94196.00;;;;10566305;27;45124;-63
2022/07/04 01:35:51;;;;;;;0.05;0.05;;;18.00;58.60;20.20;94185.00;;;;10565380;27;45862;-63
2022/07/04 01:41:13;;;;;;;0.10;0.10;;;18.00;58.60;20.20;94184.00;;;;10565301;27;45202;-63
2022/07/04 01:46:33;;;;;;;0.10;0.10;;;18.00;58.60;20.20;94203.00;;;;10565612;27;45371;-63
2022/07/04 01:51:54;;;;;;;0.00;0.00;;;18.00;59.30;20.20;94204.00;;;;10565338;27;45199;-63
2022/07/04 01:57:16;;;;;;;0.20;0.20;;;18.00;58.70;20.20;94230.00;;;;10564855;27;45215;-61
2022/07/04 02:02:37;;;;;;;0.00;0.00;;;18.00;58.60;20.20;94250.00;;;;10565022;27;45245;-61
2022/07/04 02:07:57;;;;;;;0.10;0.10;;;18.00;58.70;20.20;94256.00;;;;10564788;27;45181;-61
2022/07/04 02:13:19;;;;;;;0.10;0.10;;;18.00;58.60;20.20;94272.00;;;;10564477;27;45883;-62
2022/07/04 02:18:40;;;;;;;0.00;0.00;;;18.00;58.70;20.20;94275.00;;;;10564276;27;45121;-62
2022/07/04 02:24:00;;;;;;;0.10;0.10;;;18.00;58.70;20.20;94295.00;;;;10564314;27;45107;-63
2022/07/04 02:29:22;;;;;;;0.00;0.00;;;18.00;58.70;20.20;94294.00;;;;10563832;27;45202;-61
2022/07/04 02:34:43;;;;;;;0.10;0.03;;;18.00;58.70;20.20;94327.00;;;;10563945;27;45155;-62
2022/07/04 02:40:05;;;;;;;0.08;0.08;;;18.00;58.70;20.20;94334.00;;;;10563681;27;45684;-61
2022/07/04 02:45:27;;;;;;;0.03;0.03;;;18.00;58.70;20.20;94319.00;;;;10562946;27;45193;-61
2022/07/04 02:50:47;;;;;;;0.00;0.00;;;18.00;58.70;20.20;94307.00;;;;10563935;27;45699;-61
2022/07/04 02:56:08;;;;;;;0.10;0.10;;;18.00;58.70;20.20;94297.00;;;;10562850;27;45257;-62
2022/07/04 03:01:29;;;;;;;0.10;0.00;;;18.00;58.70;20.20;94292.00;;;;10563321;27;45167;-63
2022/07/04 03:06:50;;;;;;;0.20;0.10;;;18.00;58.70;20.20;94280.00;;;;10562419;27;45277;-62
2022/07/04 03:12:11;;;;;;;0.00;0.00;;;18.00;58.70;20.20;94247.00;;;;10562749;27;45222;-61
2022/07/04 03:17:33;;;;;;;0.32;0.10;;;18.00;58.70;20.20;94243.00;;;;10562792;27;45109;-62
2022/07/04 03:22:54;;;;;;;0.10;0.10;;;18.00;58.70;20.20;94211.00;;;;10562553;27;44899;-63
2022/07/04 03:28:14;;;;;;;0.10;0.10;;;18.00;58.70;20.20;94215.00;;;;10562069;27;45116;-62
2022/07/04 03:33:36;;;;;;;0.10;0.10;;;18.00;58.70;20.20;94200.00;;;;10562153;27;45184;-62
2022/07/04 03:38:57;;;;;;;0.05;0.00;;;18.00;58.70;20.20;94200.00;;;;10561838;27;45102;-62
2022/07/04 03:44:17;;;;;;;0.20;0.10;;;18.00;58.70;20.20;94201.00;;;;10561406;27;45671;-61
2022/07/04 03:49:39;;;;;;;0.10;0.10;;;18.00;58.70;20.20;94196.00;;;;10561813;27;45687;-62
2022/07/04 03:55:00;;;;;;;0.30;0.10;;;18.00;58.70;20.20;94205.00;;;;10561227;27;45189;-62
2022/07/04 04:00:20;;;;;;;0.30;0.00;;;18.00;58.70;20.20;94196.00;;;;10560888;27;46186;-61
2022/07/04 04:05:42;;;;;;;0.20;0.20;;;18.00;58.70;20.20;94204.00;;;;10560779;27;45856;-63
2022/07/04 04:11:03;;;;;;;0.10;0.10;;;18.00;58.70;20.20;94236.00;;;;10561251;27;45115;-61
2022/07/04 04:16:24;;;;;;;0.10;0.10;;;18.00;58.70;20.20;94261.00;;;;10560965;27;45695;-61
2022/07/04 04:21:46;;;;;;;0.10;0.10;;;18.00;58.70;20.20;94283.00;;;;10564565;27;45798;-61
2022/07/04 04:27:07;;;;;;;0.10;0.10;;;18.00;58.70;20.20;94291.00;;;;10568233;27;45216;-61
2022/07/04 04:32:28;;;;;;;0.20;0.10;;;18.00;58.70;20.20;94303.00;;;;10567616;27;45217;-62
2022/07/04 04:37:49;;;;;;;0.20;0.20;;;18.00;58.70;20.20;94312.00;;;;10568096;27;45186;-62
2022/07/04 04:43:10;;;;;;;0.28;0.15;;;18.00;58.70;20.20;94327.00;;;;10567165;27;45193;-62
2022/07/04 04:48:31;;;;;;;0.10;0.10;;;18.00;58.70;20.20;94331.00;;;;10567836;27;45112;-63
2022/07/04 04:53:52;;;;;;;0.43;0.20;;;18.00;58.70;20.20;94327.00;;;;10566994;27;45763;-62
2022/07/04 04:59:13;;;;;;;0.08;0.08;;;18.00;58.70;20.20;94352.00;;;;10567054;27;45859;-62
2022/07/04 05:04:34;;;;;;;0.08;0.08;;;18.00;58.60;20.20;94344.00;;;;10566899;27;45745;-62
2022/07/04 05:09:58;;;;;;;0.10;0.10;;;18.00;58.70;20.20;94338.00;;;;10566294;27;45216;-62
2022/07/04 05:15:19;;;;;;;0.10;0.03;;;18.00;58.70;20.20;94323.00;;;;10566290;27;45139;-61
2022/07/04 05:20:40;;;;;;;0.22;0.10;;;18.00;58.70;20.20;94305.00;;;;10566425;27;45153;-61
2022/07/04 05:26:02;;;;;;;0.10;0.10;;;18.00;58.70;20.20;94298.00;;;;10565937;27;45229;-62
2022/07/04 05:31:24;;;;;;;0.30;0.20;;;18.00;58.70;20.20;94284.00;;;;10564960;27;45130;-63
2022/07/04 05:36:44;;;;;;;0.00;0.00;;;18.00;58.60;20.20;94279.00;;;;10566512;27;45317;-62
2022/07/04 05:42:06;;;;;;;0.00;0.00;;;18.00;59.00;20.20;94319.00;;;;10579913;22;45313;-63
2022/07/04 05:47:27;;;;;;;0.30;0.20;;;18.00;58.70;20.20;94278.00;;;;10565476;27;45698;-63
2022/07/04 05:52:47;;;;;;;0.20;0.10;;;18.00;58.60;20.20;94244.00;;;;10565583;27;45102;-63
2022/07/04 05:58:09;;;;;;;0.13;0.10;;;18.00;58.60;20.10;94124.00;;;;10565054;27;45227;-64
2022/07/04 06:03:30;;;;;;;4.85;0.10;;;18.00;58.60;20.20;94193.00;;;;10565242;27;45250;-63
2022/07/04 06:08:50;;;;;;;0.10;0.10;;;18.00;58.60;20.20;94286.00;;;;10564265;27;45229;-63
2022/07/04 06:14:12;;;;;;;0.20;0.10;;;18.00;58.70;20.20;94290.00;;;;10564329;27;45229;-64
2022/07/04 06:19:33;;;;;;;0.20;0.10;;;18.00;58.60;20.20;94298.00;;;;10563388;27;45235;-63
2022/07/04 06:24:54;;;;;;;0.10;0.05;;;18.00;58.70;20.20;94286.00;;;;10564063;27;45209;-63
2022/07/04 06:30:17;;;;;;;0.17;0.10;;;18.00;58.70;20.10;94285.00;;;;10563678;27;45829;-63
2022/07/04 06:35:48;;;;;;;0.03;0.03;;;18.00;58.70;20.20;94297.00;;;;10563404;27;45147;-63
2022/07/04 06:41:09;;;;;;;0.10;0.10;;;18.00;58.70;20.20;94283.00;;;;10563731;27;45136;-63
2022/07/04 06:46:31;;;;;;;0.08;0.08;;;18.00;58.70;20.20;94257.00;;;;10562030;27;45185;-63
2022/07/04 06:51:52;;;;;;;0.22;0.10;;;18.00;58.70;20.20;94250.00;;;;10561285;27;46579;-63
2022/07/04 06:57:13;;;;;;;0.00;0.00;;;18.00;58.70;20.10;94249.00;;;;10562851;27;45163;-65
2022/07/04 07:02:36;;;;;;;0.10;0.10;;;18.00;58.70;20.10;94231.00;;;;10563485;27;45206;-63
2022/07/04 07:07:57;;;;;;;0.10;0.10;;;18.00;58.70;20.10;94233.00;;;;10562446;27;45153;-63
2022/07/04 07:13:17;;;;;;;0.20;0.10;;;18.00;58.70;20.10;94237.00;;;;10562272;27;45186;-63
2022/07/04 07:18:40;;;;;;;0.13;0.10;;;18.00;58.70;20.10;94256.00;;;;10562451;27;45145;-63
2022/07/04 07:24:01;;;;;;;0.20;0.10;;;18.00;58.70;20.10;94248.00;;;;10561983;27;45683;-63
2022/07/04 07:29:21;;;;;;;0.15;0.13;;;18.00;58.70;20.10;94236.00;;;;10562018;27;45667;-63
2022/07/04 07:34:43;;;;;;;0.10;0.10;;;18.00;58.70;20.10;94243.00;;;;10562162;27;45211;-63
2022/07/04 07:40:04;;;;;;;0.10;0.10;;;17.90;58.70;20.10;94212.00;;;;10561290;27;45199;-63
2022/07/04 07:45:25;;;;;;;0.50;0.20;;;18.00;58.80;20.10;94212.00;;;;10561431;27;45268;-63
2022/07/04 07:50:47;;;;;;;0.10;0.10;;;18.00;58.80;20.10;94173.00;;;;10561832;27;45152;-63
2022/07/04 07:56:08;;;;;;;1.20;0.20;;;18.00;58.70;20.10;94178.00;;;;10565621;27;45114;-63
2022/07/04 08:01:28;;;;;;;0.20;0.10;;;18.00;58.70;20.10;94182.00;;;;10568969;27;45679;-63
2022/07/04 08:06:50;;;;;;;0.10;0.10;;;18.00;58.70;20.10;94177.00;;;;10568575;27;45265;-63
2022/07/04 08:12:11;;;;;;;0.20;0.10;;;18.00;58.70;20.10;94163.00;;;;10568048;27;46493;-63
2022/07/04 08:17:32;;;;;;;1.00;0.17;;;18.00;58.70;20.10;94163.00;;;;10568224;27;45116;-63
2022/07/04 08:22:54;;;;;;;0.28;0.20;;;18.00;58.70;20.10;94189.00;;;;10568580;27;45169;-63
2022/07/04 08:28:14;;;;;;;0.10;0.10;;;18.00;58.70;20.10;94189.00;;;;10567936;27;45198;-64
2022/07/04 08:33:35;;;;;;;0.38;0.05;;;18.00;58.70;20.10;94195.00;;;;10568344;27;46090;-63
2022/07/04 08:38:56;;;;;;;0.20;0.10;;;18.00;58.70;20.10;94198.00;;;;10567595;27;45688;-63
2022/07/04 08:44:19;;;;;;;0.10;0.10;;;18.00;58.70;20.10;94195.00;;;;10567279;27;45178;-63
2022/07/04 08:49:43;;;;;;;0.10;0.10;;;18.00;58.70;20.10;94202.00;;;;10567222;27;45736;-63
2022/07/04 09:00:46;;;;;;;0.05;0.05;;;18.00;58.70;20.10;94204.00;;;;10567406;27;45201;-64
2022/07/04 09:06:07;;;;;;;0.10;0.10;;;18.00;58.70;20.10;94205.00;;;;10565876;27;45789;-64
2022/07/04 09:11:29;;;;;;;0.10;0.10;;;18.00;58.80;20.10;94208.00;;;;10566894;27;45241;-63
2022/07/04 09:16:53;;;;;;;0.10;0.10;;;17.90;58.70;20.10;94201.00;;;;10566383;27;45252;-63
2022/07/04 09:22:15;;;;;;;0.10;0.10;;;17.90;58.70;20.10;94202.00;;;;10566205;27;45177;-63
2022/07/04 09:27:39;;;;;;;0.13;0.13;;;18.00;58.70;20.10;94213.00;;;;10565705;27;45183;-63
2022/07/04 09:33:00;;;;;;;0.13;0.10;;;18.00;58.70;20.10;94202.00;;;;10565953;27;45853;-63
2022/07/04 09:38:24;;;;;;;0.15;0.10;;;18.00;58.70;20.10;94193.00;;;;10565632;27;45158;-63
2022/07/04 09:44:04;;;;;;;0.10;0.10;;;17.90;58.70;20.10;94206.00;;;;10565127;27;45227;-63
2022/07/04 09:49:24;;;;;;;0.20;0.20;;;18.00;58.80;20.10;94209.00;;;;10565113;27;45218;-63
2022/07/04 09:54:49;;;;;;;0.10;0.10;;;18.00;58.80;20.10;94204.00;;;;10565316;27;45330;-63
2022/07/04 10:00:26;;;;;;;0.10;0.10;;;18.00;58.70;20.10;94193.00;;;;10565066;27;45168;-63
2022/07/04 10:05:48;;;;;;;0.10;0.10;;;18.00;58.80;20.10;94202.00;;;;10565221;27;45291;-63
2022/07/04 10:11:12;;;;;;;0.15;0.13;;;18.00;58.70;20.10;94198.00;;;;10564947;27;45841;-63
2022/07/04 10:16:34;;;;;;;0.10;0.10;;;18.00;58.70;20.10;94199.00;;;;10563842;27;45197;-63
2022/07/04 10:21:55;;;;;;;0.10;0.00;;;18.00;59.30;20.10;94197.00;;;;10564361;27;45687;-63
2022/07/04 10:27:16;;;;;;;0.30;0.20;;;18.00;58.70;20.10;94207.00;;;;10564072;27;45063;-63
2022/07/04 10:32:39;;;;;;;0.35;0.17;;;18.00;58.70;20.10;94213.00;;;;10564000;27;45150;-63
2022/07/04 10:38:05;;;;;;;0.20;0.10;;;18.00;58.70;20.10;94220.00;;;;10563763;27;45145;-63
2022/07/04 10:44:01;;;;;;;0.15;0.10;;;18.00;58.70;20.20;94202.00;;;;10563255;27;45210;-63
2022/07/04 10:49:29;;;;;;;0.10;0.10;;;18.00;58.70;20.10;94206.00;;;;10563367;27;45201;-63
2022/07/04 10:54:49;;;;;;;;;;;18.00;58.70;20.20;94209.00;;;;10563608;27;45797;-63
2022/07/04 11:00:12;;;;;;;0.22;0.20;;;18.00;58.70;20.10;94205.00;;;;10564122;27;45384;-63
2022/07/04 11:05:34;;;;;;;0.10;0.10;;;18.00;58.70;20.20;94199.00;;;;10562311;27;45890;-63
2022/07/04 11:11:05;;;;;;;0.10;0.10;;;18.00;58.70;20.10;94210.00;;;;10563098;27;45168;-63
2022/07/04 11:16:25;;;;;;;0.20;0.10;;;18.00;58.70;20.10;94206.00;;;;10562714;27;45223;-63
2022/07/04 11:21:48;;;;;;;0.15;0.10;;;18.00;58.70;20.10;94201.00;;;;10562560;27;45265;-63
2022/07/04 11:27:09;;;;;;;0.10;0.10;;;18.00;58.70;20.10;94197.00;;;;10562167;27;45886;-63
2022/07/04 11:32:33;;;;;;;1.33;0.10;;;18.00;58.70;20.10;94200.00;;;;10562096;27;45228;-63
2022/07/04 11:37:58;;;;;;;0.10;0.08;;;18.00;58.70;20.10;94196.00;;;;10561752;27;45241;-63
2022/07/04 11:49:09;;;;;;;0.10;0.10;;;18.00;58.80;20.10;94168.00;;;;10561619;27;45140;-63
2022/07/04 11:54:31;;;;;;;0.30;0.17;;;18.00;58.70;20.10;94181.00;;;;10561649;27;45882;-63
2022/07/04 11:59:58;;;;;;;0.20;0.20;;;18.00;58.70;20.10;94170.00;;;;10561185;27;45209;-63
2022/07/04 12:05:20;;;;;;;0.10;0.10;;;18.00;58.80;20.10;94155.00;;;;10561121;27;45142;-63
2022/07/04 12:10:42;;;;;;;0.17;0.17;;;18.00;58.80;20.10;94154.00;;;;10561144;27;45132;-63
2022/07/04 12:16:12;;;;;;;0.20;0.20;;;18.00;59.40;20.10;94148.00;;;;10560607;27;45268;-63
2022/07/04 12:21:33;;;;;;;0.20;0.10;;;18.00;58.70;20.10;94143.00;;;;10560988;27;45326;-63
2022/07/04 12:26:55;;;;;;;0.60;0.20;;;18.00;58.70;20.20;94115.00;;;;10560309;27;45163;-63
2022/07/04 12:32:16;;;;;;;0.20;0.20;;;18.00;58.70;20.20;94121.00;;;;10560504;27;45151;-63
2022/07/04 12:37:37;;;;;;;0.10;0.10;;;18.00;58.70;20.20;94116.00;;;;10560198;27;45679;-63
2022/07/04 12:43:00;;;;;;;0.08;0.08;;;18.00;58.70;20.10;94093.00;;;;10563823;27;45143;-63
2022/07/04 12:48:28;;;;;;;0.10;0.10;;;18.00;58.70;20.10;94109.00;;;;10567313;27;45118;-63
2022/07/04 12:53:50;;;;;;;0.10;0.10;;;18.00;58.70;20.10;94122.00;;;;10567397;27;45307;-63
2022/07/04 12:59:15;;;;;;;0.20;0.17;;;18.00;58.70;20.10;94114.00;;;;10566541;27;45876;-63
2022/07/04 13:04:36;;;;;;;0.10;0.10;;;18.00;58.70;20.20;94117.00;;;;10566747;27;45226;-63
2022/07/04 13:09:57;;;;;;;0.20;0.20;;;18.00;58.70;20.20;94116.00;;;;10566481;27;45181;-63
2022/07/04 13:15:19;;;;;;;0.20;0.10;;;18.00;58.70;20.20;94121.00;;;;10566563;27;45108;-63
2022/07/04 13:20:40;;;;;;;0.10;0.10;;;18.00;58.70;20.20;94111.00;;;;10566684;27;45111;-63
2022/07/04 13:26:00;;;;;;;0.10;0.10;;;18.00;58.70;20.20;94122.00;;;;10565764;27;45106;-64
2022/07/04 13:31:22;;;;;;;0.25;0.20;;;18.00;58.70;20.20;94116.00;;;;10564685;27;45154;-63
2022/07/04 13:36:43;;;;;;;0.22;0.20;;;18.00;58.70;20.20;94115.00;;;;10564928;27;45251;-63
2022/07/04 13:42:04;;;;;;;0.20;0.15;;;18.10;58.70;20.30;94114.00;;;;10564622;27;45791;-64
2022/07/04 13:47:26;;;;;;;0.20;0.13;;;18.10;58.70;20.20;94126.00;;;;10565388;27;45337;-64
2022/07/04 13:52:47;;;;;;;0.10;0.10;;;18.10;58.90;20.20;94118.00;;;;10564499;27;45206;-64
2022/07/04 13:58:09;;;;;;;0.10;0.10;;;18.10;58.80;20.20;94134.00;;;;10566080;27;45159;-64
2022/07/04 14:03:31;;;;;;;0.25;0.20;;;18.10;59.50;20.20;94138.00;;;;10565950;27;45106;-64
2022/07/04 14:08:51;;;;;;;0.30;0.20;;;18.10;58.80;20.20;94137.00;;;;10565405;27;45659;-64
2022/07/04 14:14:12;;;;;;;0.30;0.20;;;18.10;58.80;20.20;94143.00;;;;10565483;27;45123;-64
2022/07/04 14:19:34;;;;;;;0.10;0.10;;;18.10;58.90;20.20;94146.00;;;;10565393;27;45184;-64
2022/07/04 14:24:55;;;;;;;0.80;0.20;;;18.10;58.90;20.20;94162.00;;;;10565175;27;45163;-64
2022/07/04 14:30:15;;;;;;;0.30;0.20;;;18.10;58.90;20.20;94153.00;;;;10565131;27;45349;-64
2022/07/04 14:35:37;;;;;;;0.43;0.10;;;18.10;58.80;20.30;94146.00;;;;10564608;27;45210;-64
2022/07/04 14:41:09;;;;;;;0.95;0.10;;;18.10;58.80;20.30;94147.00;;;;10564282;27;45312;-65
2022/07/04 14:46:29;;;;;;;0.50;0.20;;;18.10;58.90;20.30;94129.00;;;;10563268;27;45219;-64
2022/07/04 14:51:52;;;;;;;0.35;0.20;;;18.10;58.80;20.30;94129.00;;;;10564029;27;45707;-64
2022/07/04 14:57:14;;;;;;;0.40;0.10;;;18.10;58.80;20.30;94123.00;;;;10564386;27;45375;-64
2022/07/04 15:02:35;;;;;;;1.25;0.20;;;18.10;58.90;20.30;94099.00;;;;10563763;27;45903;-64
2022/07/04 15:07:57;;;;;;;0.30;0.10;;;18.10;58.80;20.30;94079.00;;;;10546800;27;45861;-65
2022/07/04 15:13:17;;;;;;;0.60;0.20;;;18.10;58.80;20.30;94081.00;;;;10521259;28;45166;-64
2022/07/04 15:18:38;;;;;;;0.52;0.20;;;18.10;58.70;20.30;94082.00;;;;10520888;28;45239;-65
2022/07/04 15:24:13;;;;;;;0.95;0.13;;;18.10;58.60;20.30;94085.00;;;;10521027;28;45399;-65
2022/07/04 15:29:34;;;;;;;0.20;0.20;;;18.20;58.70;20.40;94087.00;;;;10516691;27;45824;-65
2022/07/04 15:34:54;;;;;;;0.55;0.10;;;18.20;58.70;20.40;94094.00;;;;10520082;28;45785;-64
2022/07/04 15:40:16;;;;;;;0.55;0.20;;;18.20;58.40;20.30;94095.00;;;;10519847;28;45225;-64
2022/07/04 15:45:37;;;;;;;0.80;0.20;;;18.20;58.40;20.30;94095.00;;;;10519061;28;45237;-64
2022/07/04 15:50:57;;;;;;;0.55;0.13;;;18.20;58.50;20.30;94096.00;;;;10520076;28;45249;-64
2022/07/04 15:56:20;;;;;;;0.10;0.10;;;18.20;58.40;20.30;94100.00;;;;10518964;28;45155;-64
2022/07/04 16:01:41;;;;;;;1.52;0.10;;;18.20;58.40;20.30;94102.00;;;;10520099;28;45262;-64
2022/07/04 16:07:02;;;;;;;0.77;0.30;;;18.20;58.40;20.30;94097.00;;;;10519463;28;45660;-64
2022/07/04 16:12:24;;;;;;;0.20;0.20;;;18.20;58.40;20.30;94094.00;;;;10519339;28;45191;-64
2022/07/04 16:17:44;;;;;;;0.45;0.20;;;18.10;58.40;20.30;94102.00;;;;10523992;27;45374;-64
2022/07/04 16:23:05;;;;;;;0.68;0.10;;;18.20;58.50;20.30;94095.00;;;;10526294;28;45280;-64
2022/07/04 16:28:26;;;;;;;0.30;0.25;;;18.20;58.50;20.30;94110.00;;;;10525875;28;45199;-63
2022/07/04 16:33:47;;;;;;;0.20;0.20;;;18.20;58.50;20.30;94093.00;;;;10526253;28;45241;-63
2022/07/04 16:39:08;;;;;;;0.52;0.20;;;18.20;58.50;20.30;94110.00;;;;10525613;28;45314;-63
2022/07/04 16:44:30;;;;;;;0.28;0.20;;;18.20;58.60;20.30;94118.00;;;;10525209;28;45862;-63
2022/07/04 16:49:51;;;;;;;0.40;0.30;;;18.10;58.70;20.30;94112.00;;;;10525518;28;45212;-63
2022/07/04 16:55:12;;;;;;;0.63;0.20;;;18.20;58.70;20.30;94110.00;;;;10520665;28;45147;-64
2022/07/04 17:00:34;;;;;;;1.70;0.70;;;18.20;58.80;20.30;94104.00;;;;10522900;28;45190;-63
2022/07/04 17:05:54;;;;;;;2.20;0.50;;;18.20;58.90;20.30;94114.00;;;;10524458;28;45283;-64
2022/07/04 17:11:15;;;;;;;0.20;0.20;;;18.20;58.80;20.40;94117.00;;;;10524678;28;45170;-64
2022/07/04 17:16:37;;;;;;;0.95;0.40;;;18.20;58.90;20.40;94122.00;;;;10525887;27;45452;-65
2022/07/04 17:21:57;;;;;;;0.50;0.30;;;18.20;58.80;20.40;94115.00;;;;10566341;27;45765;-64
2022/07/04 17:27:19;;;;;;;0.63;0.45;;;18.30;58.90;20.40;94135.00;;;;10528778;27;45153;-64
2022/07/04 17:32:42;;;;;;;0.82;0.60;;;18.30;59.00;20.40;94139.00;;;;10544207;27;46220;-64
2022/07/04 17:38:02;;;;;;;0.50;0.40;;;18.30;59.10;20.40;94123.00;;;;10555214;27;45205;-64
2022/07/04 17:43:23;;;;;;;2.38;0.40;;;18.30;59.10;20.40;94141.00;;;;10544002;27;45804;-65
2022/07/04 17:48:46;;;;;;;0.90;0.50;;;18.30;59.10;20.40;94145.00;;;;10543211;27;45679;-65
2022/07/04 17:54:10;;;;;;;0.95;0.45;;;18.30;59.10;20.40;94142.00;;;;10553263;27;45203;-65
2022/07/04 17:59:30;;;;;;;0.63;0.55;;;18.20;59.00;20.40;94142.00;;;;10564757;27;45133;-65
2022/07/04 18:04:53;;;;;;;0.60;0.47;;;18.30;59.10;20.40;94135.00;;;;10558606;27;45436;-65
2022/07/04 18:10:13;;;;;;;1.05;0.50;;;18.30;59.10;20.40;94140.00;;;;10564509;27;45198;-65
2022/07/04 18:15:34;;;;;;;1.60;0.60;;;18.30;59.10;20.40;94140.00;;;;10562935;27;45405;-65
2022/07/04 18:20:56;;;;;;;0.75;0.43;;;18.20;59.10;20.40;94143.00;;;;10564978;27;45831;-65
2022/07/04 18:26:17;;;;;;;0.40;0.40;;;18.20;59.00;20.40;94155.00;;;;10563888;27;45263;-65
2022/07/04 18:31:37;;;;;;;0.32;0.32;;;18.30;59.10;20.40;94152.00;;;;10564424;27;45145;-65
2022/07/04 18:36:59;;;;;;;1.10;0.47;;;18.20;59.00;20.40;94152.00;;;;10563799;27;45212;-65
2022/07/04 18:47:58;;;;;;;0.50;0.40;;;18.20;59.20;20.40;94143.00;;;;10562930;27;45170;-65
2022/07/04 18:53:23;;;;;;;0.45;0.40;;;18.20;59.30;20.40;94135.00;;;;10563545;27;45157;-65
2022/07/04 18:58:43;;;;;;;0.40;0.40;;;18.20;59.90;20.40;94136.00;;;;10562483;27;45194;-65
2022/07/04 19:04:05;;;;;;;0.60;0.40;;;18.20;59.30;20.40;94143.00;;;;10509176;27;45510;-65
2022/07/04 19:09:27;;;;;;;0.50;0.40;;;18.20;59.30;20.40;94143.00;;;;10470707;28;45910;-65
2022/07/04 19:14:47;;;;;;;0.50;0.50;;;18.20;59.30;20.40;94154.00;;;;10437174;28;45161;-65
2022/07/04 19:20:09;;;;;;;0.50;0.45;;;18.20;59.30;20.40;94169.00;;;;10436284;28;45186;-65
2022/07/04 19:25:31;;;;;;;0.30;0.30;;;18.20;59.30;20.30;94160.00;;;;10436210;28;45177;-65
2022/07/04 19:30:52;;;;;;;0.50;0.43;;;18.20;59.30;20.30;94169.00;;;;10437814;28;45188;-65
2022/07/04 19:36:16;;;;;;;0.57;0.40;;;18.20;59.30;20.30;94181.00;;;;10448725;28;45750;-65
2022/07/04 19:41:38;;;;;;;0.80;0.40;;;18.20;59.30;20.30;94183.00;;;;10436019;28;45190;-65
2022/07/04 19:46:58;;;;;;;0.85;0.50;;;18.20;59.30;20.30;94193.00;;;;10435539;28;45903;-66
2022/07/04 19:52:33;;;;;;;0.47;0.40;;;18.10;59.30;20.30;94204.00;;;;10434950;28;45779;-65
2022/07/04 19:57:55;;;;;;;1.75;0.50;;;18.10;59.30;20.30;94213.00;;;;10433912;28;45879;-65
2022/07/04 20:03:15;;;;;;;1.45;0.50;;;18.20;59.30;20.30;94225.00;;;;10430996;28;45824;-65
2022/07/04 20:08:36;;;;;;;0.60;0.30;;;18.10;59.30;20.30;94220.00;;;;10435188;28;45203;-64
2022/07/04 20:13:58;;;;;;;1.17;0.40;;;18.20;59.40;20.30;94225.00;;;;10435356;28;45200;-64
2022/07/04 20:19:19;;;;;;;0.75;0.47;;;18.10;59.30;20.30;94230.00;;;;10435396;28;45258;-64
2022/07/04 20:24:39;;;;;;;0.47;0.38;;;18.10;59.30;20.30;94224.00;;;;10434587;28;45240;-64
2022/07/04 20:30:01;;;;;;;0.38;0.38;;;18.10;59.30;20.30;94227.00;;;;10434814;28;45252;-65
2022/07/04 20:35:22;;;;;;;1.27;0.47;;;18.20;59.40;20.30;94226.00;;;;10435332;28;45168;-63
2022/07/04 20:40:44;;;;;;;0.50;0.50;;;18.10;59.30;20.30;94214.00;;;;10435225;28;45674;-65
2022/07/04 20:46:06;;;;;;;0.40;0.40;;;18.20;59.40;20.30;94224.00;;;;10433852;28;45866;-65
2022/07/04 20:51:27;;;;;;;0.30;0.30;;;18.20;59.40;20.30;94222.00;;;;10435093;28;45242;-64
2022/07/04 20:56:48;;;;;;;0.52;0.40;;;18.20;59.50;20.30;94237.00;;;;10434485;28;45684;-65
2022/07/04 21:02:12;;;;;;;0.50;0.50;;;18.10;59.40;20.30;94245.00;;;;10435593;28;45740;-64
2022/07/04 21:07:32;;;;;;;0.90;0.40;;;18.10;60.00;20.30;94249.00;;;;10441258;28;45203;-65
2022/07/04 21:12:54;;;;;;;0.57;0.40;;;18.10;59.40;20.30;94251.00;;;;10441203;28;45669;-65
2022/07/04 21:18:16;;;;;;;0.40;0.40;;;18.10;59.40;20.30;94240.00;;;;10441047;28;45124;-64
2022/07/04 21:23:37;;;;;;;0.65;0.50;;;18.10;59.40;20.30;94242.00;;;;10441372;28;45193;-64
2022/07/04 21:28:58;;;;;;;0.30;0.30;;;18.10;59.40;20.30;94250.00;;;;10440355;28;45220;-64
2022/07/04 21:34:20;;;;;;;1.15;0.50;;;18.10;59.40;20.30;94237.00;;;;10440399;28;45781;-64
2022/07/04 21:39:40;;;;;;;0.45;0.40;;;18.10;59.40;20.30;94239.00;;;;10440142;28;45173;-65
2022/07/04 21:45:00;;;;;;;0.93;0.40;;;18.10;59.50;20.30;94255.00;;;;10440157;28;45164;-65
2022/07/04 21:50:24;;;;;;;1.00;0.40;;;18.10;59.50;20.30;94245.00;;;;10439151;28;45117;-64
2022/07/04 21:55:45;;;;;;;0.32;0.20;;;18.10;59.50;20.30;94257.00;;;;10439775;28;45128;-65
2022/07/04 22:01:05;;;;;;;0.40;0.40;;;18.10;59.50;20.30;94241.00;;;;10439750;28;45218;-65
2022/07/04 22:06:27;;;;;;;0.90;0.50;;;18.10;59.50;20.30;94254.00;;;;10439187;28;45468;-65
2022/07/04 22:11:48;;;;;;;0.50;0.50;;;18.10;59.60;20.30;94254.00;;;;10439354;28;45471;-65
2022/07/04 22:17:08;;;;;;;0.50;0.45;;;18.10;59.60;20.30;94241.00;;;;10438651;28;45861;-64
2022/07/04 22:22:31;;;;;;;0.40;0.40;;;18.10;59.60;20.30;94240.00;;;;10438695;28;45174;-65
2022/07/04 22:27:52;;;;;;;0.70;0.50;;;18.10;59.60;20.30;94246.00;;;;10438701;28;45112;-65
2022/07/04 22:33:12;;;;;;;0.40;0.40;;;18.10;59.60;20.30;94243.00;;;;10438719;28;45252;-65
2022/07/04 22:38:34;;;;;;;0.45;0.40;;;18.10;59.70;20.30;94249.00;;;;10438230;28;45160;-64
2022/07/04 22:43:55;;;;;;;1.02;0.50;;;18.10;59.70;20.30;94249.00;;;;10437809;28;45104;-65
2022/07/04 22:49:15;;;;;;;0.95;0.45;;;18.10;59.60;20.30;94239.00;;;;10437739;28;45882;-65
2022/07/04 22:54:52;;;;;;;0.60;0.50;;;18.10;59.70;20.30;94244.00;;;;10437811;28;45767;-63
2022/07/04 23:00:16;;;;;;;;;;;18.10;59.60;20.30;94260.00;;;;10438321;28;45793;-65
2022/07/04 23:05:37;;;;;;;0.75;0.50;;;18.10;59.70;20.30;94254.00;;;;10437299;28;45283;-65
2022/07/04 23:10:59;;;;;;;0.50;0.50;;;18.10;59.70;20.30;94242.00;;;;10437416;28;45164;-65
2022/07/04 23:16:19;;;;;;;1.20;0.50;;;18.10;59.70;20.30;94250.00;;;;10436842;28;45274;-65
2022/07/04 23:21:40;;;;;;;0.50;0.40;;;18.10;59.70;20.30;94253.00;;;;10437013;28;45681;-65
2022/07/04 23:27:02;;;;;;;0.38;0.38;;;17.80;59.50;20.20;94250.00;;;;10435874;28;45251;-64
2022/07/04 23:32:22;;;;;;;0.40;0.40;;;18.10;59.60;20.20;94260.00;;;;10436553;28;45152;-65
2022/07/04 23:37:42;;;;;;;0.68;0.60;;;18.10;59.60;20.30;94253.00;;;;10436329;28;45187;-65
2022/07/04 23:43:04;;;;;;;0.55;0.43;;;18.10;59.60;20.30;94254.00;;;;10436165;28;45125;-65
2022/07/04 23:48:25;;;;;;;0.57;0.50;;;18.10;59.60;20.30;94245.00;;;;10435793;28;45104;-65
2022/07/04 23:53:45;;;;;;;0.82;0.50;;;18.10;59.60;20.20;94243.00;;;;10436552;28;46024;-65